createdAt,value
2022-11-15T00:00:44.681Z,50.885605
2022-11-15T00:01:44.726Z,50.885643
2022-11-15T00:02:44.700Z,50.885639
2022-11-15T00:03:44.685Z,50.885654
2022-11-15T00:04:44.642Z,50.885620
2022-11-15T00:05:44.643Z,50.885597
2022-11-15T00:06:44.723Z,50.885624
2022-11-15T00:07:56.698Z,50.885677
2022-11-15T00:08:46.767Z,50.885555
2022-11-15T00:09:46.191Z,50.885517
2022-11-15T00:10:44.620Z,50.885506
2022-11-15T00:11:44.599Z,50.885605
2022-11-15T00:12:44.627Z,50.885593
2022-11-15T00:13:44.630Z,50.885609
2022-11-15T00:14:44.712Z,50.885567
2022-11-15T00:15:44.621Z,50.885513
2022-11-15T00:16:44.636Z,50.885612
2022-11-15T00:17:44.563Z,50.885647
2022-11-15T00:18:50.252Z,50.885521
2022-11-15T00:19:46.579Z,50.885632
2022-11-15T00:20:44.565Z,50.885746
2022-11-15T00:21:44.549Z,50.885658
2022-11-15T00:22:44.549Z,50.885609
2022-11-15T00:23:44.558Z,50.885628
2022-11-15T00:24:44.545Z,50.885456
2022-11-15T00:25:44.542Z,50.885536
2022-11-15T00:26:44.558Z,50.885509
2022-11-15T00:27:44.508Z,50.885506
2022-11-15T00:28:44.517Z,50.885529
2022-11-15T00:29:44.542Z,50.885445
2022-11-15T00:30:44.616Z,50.885464
2022-11-15T00:31:44.478Z,50.885471
2022-11-15T00:32:44.505Z,50.885330
2022-11-15T00:33:44.529Z,50.885586
2022-11-15T00:34:44.502Z,50.885612
2022-11-15T00:35:44.476Z,50.885677
2022-11-15T00:36:44.449Z,50.885456
2022-11-15T00:37:44.460Z,50.885426
2022-11-15T00:38:44.499Z,50.885582
2022-11-15T00:39:44.472Z,50.885529
2022-11-15T00:40:44.456Z,50.885628
2022-11-15T00:41:45.434Z,50.885666
2022-11-15T00:42:44.435Z,50.885460
2022-11-15T00:43:45.122Z,50.885513
2022-11-15T00:44:44.441Z,50.885628
2022-11-15T00:45:44.425Z,50.885757
2022-11-15T00:46:44.419Z,50.885719
2022-11-15T00:47:44.392Z,50.885666
2022-11-15T00:48:44.406Z,50.885647
2022-11-15T00:49:44.427Z,50.885761
2022-11-15T00:50:44.400Z,50.885624
2022-11-15T00:51:44.384Z,50.885643
2022-11-15T00:52:44.393Z,50.885540
2022-11-15T00:53:44.384Z,50.885700
2022-11-15T00:54:44.394Z,50.885632
2022-11-15T00:55:44.362Z,50.885616
2022-11-15T00:56:44.330Z,50.885548
2022-11-15T00:57:44.376Z,50.885414
2022-11-15T00:58:44.324Z,50.885517
2022-11-15T00:59:44.376Z,50.885593
2022-11-15T01:00:44.401Z,50.885464
2022-11-15T01:01:44.304Z,50.885551
2022-11-15T01:02:44.345Z,50.885460
2022-11-15T01:03:44.293Z,50.885323
2022-11-15T01:04:47.596Z,50.885464
2022-11-15T01:05:44.333Z,50.885578
2022-11-15T01:06:44.396Z,50.885548
2022-11-15T01:07:44.403Z,50.885727
2022-11-15T01:08:44.289Z,50.885532
2022-11-15T01:09:44.260Z,50.885620
2022-11-15T01:10:44.308Z,50.885651
2022-11-15T01:11:44.274Z,50.885468
2022-11-15T01:12:44.260Z,50.885639
2022-11-15T01:13:44.249Z,50.885616
2022-11-15T01:14:45.332Z,50.885582
2022-11-15T01:15:44.377Z,50.885605
2022-11-15T01:16:44.222Z,50.885609
2022-11-15T01:17:44.250Z,50.885582
2022-11-15T01:18:44.254Z,50.885593
2022-11-15T01:19:44.202Z,50.885590
2022-11-15T01:20:44.241Z,50.885635
2022-11-15T01:21:44.262Z,50.885593
2022-11-15T01:22:44.213Z,50.885635
2022-11-15T01:23:44.197Z,50.885506
2022-11-15T01:24:44.214Z,50.885593
2022-11-15T01:25:44.156Z,50.885582
2022-11-15T01:26:44.198Z,50.885601
2022-11-15T01:27:44.220Z,50.885647
2022-11-15T01:28:44.184Z,50.885582
2022-11-15T01:29:44.146Z,50.885593
2022-11-15T01:30:44.139Z,50.885502
2022-11-15T01:31:44.166Z,50.885578
2022-11-15T01:32:44.170Z,50.885666
2022-11-15T01:33:44.122Z,50.885571
2022-11-15T01:34:44.130Z,50.885544
2022-11-15T01:35:44.175Z,50.885540
2022-11-15T01:36:44.118Z,50.885593
2022-11-15T01:37:44.557Z,50.885601
2022-11-15T01:38:44.121Z,50.885574
2022-11-15T01:39:44.123Z,50.885490
2022-11-15T01:40:44.089Z,50.885677
2022-11-15T01:41:44.090Z,50.885712
2022-11-15T01:42:44.062Z,50.886143
2022-11-15T01:43:44.174Z,50.885704
2022-11-15T01:44:44.073Z,50.885479
2022-11-15T01:45:44.115Z,50.885395
2022-11-15T01:46:44.043Z,50.885406
2022-11-15T01:47:44.022Z,50.885509
2022-11-15T01:48:44.103Z,50.885559
2022-11-15T01:49:44.042Z,50.885574
2022-11-15T01:50:44.034Z,50.885601
2022-11-15T01:51:44.023Z,50.885654
2022-11-15T01:52:44.031Z,50.885590
2022-11-15T01:53:44.006Z,50.885559
2022-11-15T01:54:44.129Z,50.885597
2022-11-15T01:55:43.986Z,50.885597
2022-11-15T01:56:44.018Z,50.885426
2022-11-15T01:57:44.019Z,50.885284
2022-11-15T01:58:44.015Z,50.885452
2022-11-15T01:59:44.057Z,50.885281
2022-11-15T02:00:44.013Z,50.885410
2022-11-15T02:01:43.933Z,50.885696
2022-11-15T02:02:44.954Z,50.885624
2022-11-15T02:03:43.950Z,50.885628
2022-11-15T02:04:43.977Z,50.885666
2022-11-15T02:05:43.968Z,50.885620
2022-11-15T02:06:43.915Z,50.885681
2022-11-15T02:07:43.916Z,50.885654
2022-11-15T02:08:43.923Z,50.885738
2022-11-15T02:09:43.919Z,50.885719
2022-11-15T02:10:43.917Z,50.885700
2022-11-15T02:11:43.893Z,50.885681
2022-11-15T02:12:43.908Z,50.885677
2022-11-15T02:13:43.878Z,50.885735
2022-11-15T02:14:43.859Z,50.885715
2022-11-15T02:15:43.876Z,50.885643
2022-11-15T02:16:43.887Z,50.885712
2022-11-15T02:17:43.860Z,50.885738
2022-11-15T02:18:43.970Z,50.885628
2022-11-15T02:19:43.835Z,50.885624
2022-11-15T02:20:43.853Z,50.885654
2022-11-15T02:21:43.874Z,50.885536
2022-11-15T02:22:43.829Z,50.885376
2022-11-15T02:23:43.804Z,50.885548
2022-11-15T02:24:43.803Z,50.885654
2022-11-15T02:25:43.817Z,50.885628
2022-11-15T02:26:43.829Z,50.885635
2022-11-15T02:27:43.815Z,50.885647
2022-11-15T02:28:43.772Z,50.885601
2022-11-15T02:29:43.772Z,50.885590
2022-11-15T02:30:43.792Z,50.885654
2022-11-15T02:31:43.787Z,50.885601
2022-11-15T02:32:43.871Z,50.885616
2022-11-15T02:33:43.733Z,50.885616
2022-11-15T02:34:44.734Z,50.885597
2022-11-15T02:35:43.730Z,50.885517
2022-11-15T02:36:43.752Z,50.885571
2022-11-15T02:37:43.723Z,50.885590
2022-11-15T02:38:43.854Z,50.885567
2022-11-15T02:39:43.713Z,50.885483
2022-11-15T02:40:43.704Z,50.885563
2022-11-15T02:41:43.690Z,50.885551
2022-11-15T02:42:43.684Z,50.885639
2022-11-15T02:43:43.735Z,50.885578
2022-11-15T02:44:43.713Z,50.885685
2022-11-15T02:45:43.698Z,50.885651
2022-11-15T02:46:43.687Z,50.885708
2022-11-15T02:47:43.668Z,50.885723
2022-11-15T02:48:43.667Z,50.885590
2022-11-15T02:49:43.660Z,50.885715
2022-11-15T02:50:43.663Z,50.885529
2022-11-15T02:51:43.637Z,50.885574
2022-11-15T02:52:43.649Z,50.885387
2022-11-15T02:53:43.638Z,50.885468
2022-11-15T02:54:43.678Z,50.885403
2022-11-15T02:55:43.615Z,50.885506
2022-11-15T02:56:43.614Z,50.885662
2022-11-15T02:57:43.585Z,50.885578
2022-11-15T02:58:43.602Z,50.885574
2022-11-15T02:59:43.580Z,50.885532
2022-11-15T03:00:43.717Z,50.885635
2022-11-15T03:01:43.594Z,50.885605
2022-11-15T03:02:43.574Z,50.885529
2022-11-15T03:03:43.576Z,50.885460
2022-11-15T03:04:43.585Z,50.885345
2022-11-15T03:05:43.572Z,50.885525
2022-11-15T03:06:43.561Z,50.885563
2022-11-15T03:07:43.514Z,50.885597
2022-11-15T03:08:43.516Z,50.885582
2022-11-15T03:09:43.551Z,50.885414
2022-11-15T03:10:43.547Z,50.885468
2022-11-15T03:11:43.507Z,50.885586
2022-11-15T03:12:43.506Z,50.885620
2022-11-15T03:13:43.498Z,50.885582
2022-11-15T03:14:43.505Z,50.885632
2022-11-15T03:15:43.458Z,50.885563
2022-11-15T03:16:43.613Z,50.885540
2022-11-15T03:17:43.450Z,50.885548
2022-11-15T03:18:43.491Z,50.885536
2022-11-15T03:19:43.454Z,50.885551
2022-11-15T03:20:43.463Z,50.885456
2022-11-15T03:21:43.464Z,50.885517
2022-11-15T03:22:43.470Z,50.885605
2022-11-15T03:23:43.467Z,50.885468
2022-11-15T03:24:43.406Z,50.885437
2022-11-15T03:25:43.398Z,50.885479
2022-11-15T03:26:43.390Z,50.885494
2022-11-15T03:27:43.416Z,50.885536
2022-11-15T03:28:43.392Z,50.885555
2022-11-15T03:29:43.395Z,50.885532
2022-11-15T03:30:43.385Z,50.885502
2022-11-15T03:31:48.597Z,50.885471
2022-11-15T03:32:44.392Z,50.885441
2022-11-15T03:33:43.356Z,50.885494
2022-11-15T03:34:43.351Z,50.885578
2022-11-15T03:35:43.334Z,50.885506
2022-11-15T03:36:43.334Z,50.885818
2022-11-15T03:37:43.335Z,50.885624
2022-11-15T03:38:43.519Z,50.885582
2022-11-15T03:39:43.335Z,50.885532
2022-11-15T03:40:43.309Z,50.885544
2022-11-15T03:41:43.299Z,50.885490
2022-11-15T03:42:43.314Z,50.885639
2022-11-15T03:43:43.403Z,50.885536
2022-11-15T03:44:43.300Z,50.885521
2022-11-15T03:45:43.290Z,50.885536
2022-11-15T03:46:43.268Z,50.885635
2022-11-15T03:47:43.278Z,50.885662
2022-11-15T03:48:43.279Z,50.885647
2022-11-15T03:49:43.261Z,50.885422
2022-11-15T03:50:43.244Z,50.885471
2022-11-15T03:51:43.230Z,50.885525
2022-11-15T03:52:43.222Z,50.885525
2022-11-15T03:53:43.252Z,50.885475
2022-11-15T03:54:43.247Z,50.885574
2022-11-15T03:55:43.232Z,50.885693
2022-11-15T03:56:43.226Z,50.885586
2022-11-15T03:57:43.198Z,50.885483
2022-11-15T03:58:43.192Z,50.885464
2022-11-15T03:59:43.190Z,50.885487
2022-11-15T04:00:43.316Z,50.885532
2022-11-15T04:01:43.236Z,50.885498
2022-11-15T04:02:43.148Z,50.885529
2022-11-15T04:03:43.162Z,50.885567
2022-11-15T04:04:43.176Z,50.885475
2022-11-15T04:05:43.276Z,50.885490
2022-11-15T04:06:43.145Z,50.885498
2022-11-15T04:07:43.162Z,50.885490
2022-11-15T04:08:43.999Z,50.885635
2022-11-15T04:09:43.155Z,50.885612
2022-11-15T04:10:43.134Z,50.885605
2022-11-15T04:11:43.380Z,50.885483
2022-11-15T04:12:43.093Z,50.885502
2022-11-15T04:13:43.078Z,50.885490
2022-11-15T04:14:43.077Z,50.885498
2022-11-15T04:15:43.084Z,50.885483
2022-11-15T04:16:44.197Z,50.885487
2022-11-15T04:17:44.081Z,50.885544
2022-11-15T04:18:43.065Z,50.885609
2022-11-15T04:19:43.051Z,50.885521
2022-11-15T04:20:43.047Z,50.885593
2022-11-15T04:21:43.015Z,50.885559
2022-11-15T04:22:43.151Z,50.885540
2022-11-15T04:23:43.021Z,50.885513
2022-11-15T04:24:43.017Z,50.885532
2022-11-15T04:25:43.033Z,50.885620
2022-11-15T04:26:42.994Z,50.885506
2022-11-15T04:27:43.004Z,50.885567
2022-11-15T04:28:42.997Z,50.885731
2022-11-15T04:29:42.988Z,50.885551
2022-11-15T04:30:43.006Z,50.885448
2022-11-15T04:31:43.002Z,50.885517
2022-11-15T04:32:42.969Z,50.885647
2022-11-15T04:33:43.095Z,50.885616
2022-11-15T04:34:42.993Z,50.885567
2022-11-15T04:35:42.941Z,50.885529
2022-11-15T04:36:42.973Z,50.885616
2022-11-15T04:37:48.959Z,50.885502
2022-11-15T04:38:45.051Z,50.885445
2022-11-15T04:39:42.916Z,50.885345
2022-11-15T04:40:42.968Z,50.885387
2022-11-15T04:41:42.919Z,50.885433
2022-11-15T04:42:43.058Z,50.885479
2022-11-15T04:43:42.903Z,50.885445
2022-11-15T04:44:42.985Z,50.885509
2022-11-15T04:45:42.877Z,50.885506
2022-11-15T04:46:42.867Z,50.885551
2022-11-15T04:47:42.891Z,50.885521
2022-11-15T04:48:42.868Z,50.885532
2022-11-15T04:49:42.996Z,50.885540
2022-11-15T04:50:42.870Z,50.885559
2022-11-15T04:51:42.813Z,50.885559
2022-11-15T04:52:42.839Z,50.885681
2022-11-15T04:53:42.819Z,50.885651
2022-11-15T04:54:42.827Z,50.885536
2022-11-15T04:55:42.848Z,50.885456
2022-11-15T04:56:42.847Z,50.885406
2022-11-15T04:57:42.807Z,50.885532
2022-11-15T04:58:42.817Z,50.885502
2022-11-15T04:59:42.781Z,50.885429
2022-11-15T05:00:42.864Z,50.885521
2022-11-15T05:01:45.140Z,50.885494
2022-11-15T05:02:43.776Z,50.885555
2022-11-15T05:03:42.751Z,50.885601
2022-11-15T05:04:42.758Z,50.885494
2022-11-15T05:05:42.742Z,50.885525
2022-11-15T05:06:42.776Z,50.885483
2022-11-15T05:07:42.787Z,50.885426
2022-11-15T05:08:42.719Z,50.885506
2022-11-15T05:09:42.737Z,50.885418
2022-11-15T05:10:42.698Z,50.885368
2022-11-15T05:11:42.752Z,50.885441
2022-11-15T05:12:42.688Z,50.885410
2022-11-15T05:13:42.715Z,50.885365
2022-11-15T05:14:42.684Z,50.885410
2022-11-15T05:15:42.663Z,50.885403
2022-11-15T05:16:42.669Z,50.885433
2022-11-15T05:17:42.746Z,50.885483
2022-11-15T05:18:42.667Z,50.885475
2022-11-15T05:19:42.677Z,50.885406
2022-11-15T05:20:42.629Z,50.885384
2022-11-15T05:21:42.643Z,50.885452
2022-11-15T05:22:42.847Z,50.885487
2022-11-15T05:23:42.635Z,50.885529
2022-11-15T05:24:42.612Z,50.885464
2022-11-15T05:25:42.627Z,50.885525
2022-11-15T05:26:42.588Z,50.885483
2022-11-15T05:27:42.601Z,50.885506
2022-11-15T05:28:42.623Z,50.885483
2022-11-15T05:29:42.567Z,50.885471
2022-11-15T05:30:42.563Z,50.885483
2022-11-15T05:31:42.554Z,50.885494
2022-11-15T05:32:42.584Z,50.885498
2022-11-15T05:33:42.631Z,50.885483
2022-11-15T05:34:42.551Z,50.885532
2022-11-15T05:35:42.543Z,50.885555
2022-11-15T05:36:42.550Z,50.885487
2022-11-15T05:37:42.565Z,50.885529
2022-11-15T05:38:42.534Z,50.885532
2022-11-15T05:39:42.724Z,50.885506
2022-11-15T05:40:42.525Z,50.885498
2022-11-15T05:41:42.502Z,50.885601
2022-11-15T05:42:42.495Z,50.885639
2022-11-15T05:43:42.479Z,50.885574
2022-11-15T05:44:42.602Z,50.885540
2022-11-15T05:45:42.479Z,50.885494
2022-11-15T05:46:42.496Z,50.885502
2022-11-15T05:47:42.478Z,50.885590
2022-11-15T05:48:42.477Z,50.885513
2022-11-15T05:49:42.441Z,50.885475
2022-11-15T05:50:42.569Z,50.885574
2022-11-15T05:51:42.442Z,50.885380
2022-11-15T05:52:42.440Z,50.885456
2022-11-15T05:53:42.433Z,50.885494
2022-11-15T05:54:42.402Z,50.885525
2022-11-15T05:55:42.451Z,50.885429
2022-11-15T05:56:42.409Z,50.885521
2022-11-15T05:57:42.399Z,50.885521
2022-11-15T05:58:42.427Z,50.885635
2022-11-15T05:59:42.412Z,50.885593
2022-11-15T06:00:42.367Z,50.885529
2022-11-15T06:01:42.448Z,50.885284
2022-11-15T06:02:42.370Z,50.885117
2022-11-15T06:03:42.359Z,50.885307
2022-11-15T06:04:42.365Z,50.885548
2022-11-15T06:05:42.375Z,50.885605
2022-11-15T06:06:42.454Z,50.885532
2022-11-15T06:07:42.318Z,50.885197
2022-11-15T06:08:42.372Z,50.885185
2022-11-15T06:09:42.311Z,50.885155
2022-11-15T06:10:42.328Z,50.885212
2022-11-15T06:11:42.329Z,50.885532
2022-11-15T06:12:42.336Z,50.885384
2022-11-15T06:13:42.285Z,50.885437
2022-11-15T06:14:42.292Z,50.885399
2022-11-15T06:15:42.277Z,50.885582
2022-11-15T06:16:42.272Z,50.885685
2022-11-15T06:17:42.507Z,50.885628
2022-11-15T06:18:42.267Z,50.885555
2022-11-15T06:19:42.244Z,50.885536
2022-11-15T06:20:42.236Z,50.885517
2022-11-15T06:21:42.258Z,50.885609
2022-11-15T06:22:42.263Z,50.885586
2022-11-15T06:23:42.301Z,50.885700
2022-11-15T06:24:42.243Z,50.885616
2022-11-15T06:25:42.235Z,50.885517
2022-11-15T06:26:42.194Z,50.885551
2022-11-15T06:27:42.183Z,50.885529
2022-11-15T06:28:42.640Z,50.885601
2022-11-15T06:29:42.190Z,50.885605
2022-11-15T06:30:42.199Z,50.885658
2022-11-15T06:31:42.197Z,50.885601
2022-11-15T06:32:42.183Z,50.885601
2022-11-15T06:33:42.152Z,50.885483
2022-11-15T06:34:42.195Z,50.885509
2022-11-15T06:35:42.142Z,50.885403
2022-11-15T06:36:42.137Z,50.885288
2022-11-15T06:37:42.142Z,50.885471
2022-11-15T06:41:11.707Z,50.886063
2022-11-15T06:42:11.716Z,50.885948
2022-11-15T06:43:11.720Z,50.885880
2022-11-15T06:44:11.714Z,50.885807
2022-11-15T06:45:11.838Z,50.885830
2022-11-15T06:46:11.683Z,50.885761
2022-11-15T06:47:11.673Z,50.885651
2022-11-15T06:48:11.691Z,50.885616
2022-11-15T06:49:11.667Z,50.885551
2022-11-15T06:50:11.691Z,50.885582
2022-11-15T06:51:11.705Z,50.885582
2022-11-15T06:52:11.714Z,50.885540
2022-11-15T06:53:11.658Z,50.885567
2022-11-15T06:54:11.644Z,50.885571
2022-11-15T06:55:11.637Z,50.885590
2022-11-15T06:56:11.773Z,50.885620
2022-11-15T06:57:11.617Z,50.885685
2022-11-15T06:58:11.618Z,50.885677
2022-11-15T06:59:11.627Z,50.885681
2022-11-15T07:00:11.625Z,50.885723
2022-11-15T07:01:11.678Z,50.885666
2022-11-15T07:02:11.632Z,50.885658
2022-11-15T07:03:11.573Z,50.885662
2022-11-15T07:04:11.561Z,50.885605
2022-11-15T07:05:11.556Z,50.885601
2022-11-15T07:06:11.549Z,50.885578
2022-11-15T07:07:11.752Z,50.885578
2022-11-15T07:08:11.598Z,50.885559
2022-11-15T07:09:11.569Z,50.885601
2022-11-15T07:10:11.548Z,50.885586
2022-11-15T07:11:11.533Z,50.885586
2022-11-15T07:12:11.519Z,50.885571
2022-11-15T07:13:11.530Z,50.885582
2022-11-15T07:14:11.552Z,50.885571
2022-11-15T07:15:11.524Z,50.885590
2022-11-15T07:16:11.499Z,50.885612
2022-11-15T07:17:11.503Z,50.885571
2022-11-15T07:18:11.585Z,50.885551
2022-11-15T07:19:11.472Z,50.885128
2022-11-15T07:20:11.447Z,50.885220
2022-11-15T07:21:11.483Z,50.885468
2022-11-15T07:22:11.452Z,50.885410
2022-11-15T07:23:11.506Z,50.885418
2022-11-15T07:24:11.454Z,50.885490
2022-11-15T07:25:11.440Z,50.885475
2022-11-15T07:26:11.416Z,50.885529
2022-11-15T07:27:11.442Z,50.885529
2022-11-15T07:28:11.415Z,50.885551
2022-11-15T07:29:11.449Z,50.885548
2022-11-15T07:30:11.427Z,50.885593
2022-11-15T07:31:11.401Z,50.885597
2022-11-15T07:32:11.395Z,50.885601
2022-11-15T07:33:11.387Z,50.885567
2022-11-15T07:34:11.356Z,50.885532
2022-11-15T07:35:11.405Z,50.885536
2022-11-15T07:36:11.378Z,50.885559
2022-11-15T07:37:11.377Z,50.885559
2022-11-15T07:38:11.385Z,50.885620
2022-11-15T07:39:11.377Z,50.885609
2022-11-15T07:40:11.456Z,50.885597
2022-11-15T07:41:11.328Z,50.885601
2022-11-15T07:42:11.319Z,50.885590
2022-11-15T07:43:11.328Z,50.885601
2022-11-15T07:44:11.307Z,50.885521
2022-11-15T07:45:11.335Z,50.885521
2022-11-15T07:46:11.323Z,50.885471
2022-11-15T07:47:11.277Z,50.885422
2022-11-15T07:48:11.275Z,50.885395
2022-11-15T07:49:11.258Z,50.885414
2022-11-15T07:50:11.278Z,50.885468
2022-11-15T07:51:14.024Z,50.885395
2022-11-15T07:52:11.300Z,50.885445
2022-11-15T07:53:11.263Z,50.885437
2022-11-15T07:54:11.261Z,50.885475
2022-11-15T07:55:11.256Z,50.885506
2022-11-15T07:56:11.232Z,50.885414
2022-11-15T07:57:11.364Z,50.885365
2022-11-15T07:58:11.234Z,50.885410
2022-11-15T07:59:11.286Z,50.885384
2022-11-15T08:00:11.205Z,50.885414
2022-11-15T08:01:11.378Z,50.885300
2022-11-15T08:02:11.369Z,50.885353
2022-11-15T08:03:11.203Z,50.885368
2022-11-15T08:04:11.247Z,50.885441
2022-11-15T08:05:11.183Z,50.885479
2022-11-15T08:06:11.174Z,50.885551
2022-11-15T08:07:11.235Z,50.885536
2022-11-15T08:08:11.287Z,50.885563
2022-11-15T08:09:11.145Z,50.885628
2022-11-15T08:10:11.153Z,50.885567
2022-11-15T08:11:11.125Z,50.885483
2022-11-15T08:12:12.115Z,50.885624
2022-11-15T08:13:11.182Z,50.885536
2022-11-15T08:14:11.110Z,50.885540
2022-11-15T08:15:11.098Z,50.885551
2022-11-15T08:16:11.126Z,50.885563
2022-11-15T08:17:11.121Z,50.885609
2022-11-15T08:18:11.100Z,50.885498
2022-11-15T08:19:11.163Z,50.885574
2022-11-15T08:20:11.113Z,50.885494
2022-11-15T08:21:14.220Z,50.885540
2022-11-15T08:22:12.062Z,50.885567
2022-11-15T08:23:11.082Z,50.885456
2022-11-15T08:24:11.104Z,50.885468
2022-11-15T08:25:11.090Z,50.885460
2022-11-15T08:26:11.103Z,50.885403
2022-11-15T08:27:11.064Z,50.885464
2022-11-15T08:28:11.142Z,50.885422
2022-11-15T08:29:11.063Z,50.885418
2022-11-15T08:30:11.836Z,50.885540
2022-11-15T08:31:11.034Z,50.885471
2022-11-15T08:32:11.007Z,50.885658
2022-11-15T08:33:10.992Z,50.885548
2022-11-15T08:34:11.019Z,50.885647
2022-11-15T08:35:11.008Z,50.885746
2022-11-15T08:36:11.005Z,50.885643
2022-11-15T08:37:10.978Z,50.885612
2022-11-15T08:38:11.034Z,50.885605
2022-11-15T08:39:10.969Z,50.885696
2022-11-15T08:40:10.961Z,50.885639
2022-11-15T08:41:11.099Z,50.885593
2022-11-15T08:42:13.540Z,50.885624
2022-11-15T08:43:11.926Z,50.885574
2022-11-15T08:44:10.952Z,50.885548
2022-11-15T08:45:10.940Z,50.885574
2022-11-15T08:46:10.949Z,50.885532
2022-11-15T08:47:10.922Z,50.885433
2022-11-15T08:48:10.918Z,50.885448
2022-11-15T08:49:10.889Z,50.885460
2022-11-15T08:50:10.928Z,50.885612
2022-11-15T08:51:11.884Z,50.885513
2022-11-15T08:52:10.923Z,50.885452
2022-11-15T08:53:10.876Z,50.885525
2022-11-15T08:54:10.902Z,50.885410
2022-11-15T08:55:10.893Z,50.885456
2022-11-15T08:56:10.873Z,50.885349
2022-11-15T08:57:10.891Z,50.885551
2022-11-15T08:58:10.911Z,50.885521
2022-11-15T08:59:10.857Z,50.885544
2022-11-15T09:00:10.844Z,50.885475
2022-11-15T09:01:12.871Z,50.885456
2022-11-15T09:02:11.906Z,50.885590
2022-11-15T09:03:10.865Z,50.885658
2022-11-15T09:04:10.848Z,50.885643
2022-11-15T09:05:10.803Z,50.885624
2022-11-15T09:06:11.882Z,50.885666
2022-11-15T09:07:10.838Z,50.885601
2022-11-15T09:08:32.797Z,50.885532
2022-11-15T09:09:11.772Z,50.885632
2022-11-15T09:10:10.797Z,50.885605
2022-11-15T09:11:10.757Z,50.885578
2022-11-15T09:12:10.777Z,50.885559
2022-11-15T09:13:10.889Z,50.885555
2022-11-15T09:14:10.896Z,50.885517
2022-11-15T09:15:10.779Z,50.885399
2022-11-15T09:16:10.794Z,50.885612
2022-11-15T09:17:10.733Z,50.885578
2022-11-15T09:18:10.706Z,50.885632
2022-11-15T09:19:12.081Z,50.885571
2022-11-15T09:20:10.773Z,50.885540
2022-11-15T09:21:10.749Z,50.885479
2022-11-15T09:22:10.756Z,50.885578
2022-11-15T09:23:10.724Z,50.885567
2022-11-15T09:24:10.808Z,50.885601
2022-11-15T09:25:11.340Z,50.885635
2022-11-15T09:26:11.690Z,50.885612
2022-11-15T09:27:10.664Z,50.885571
2022-11-15T09:28:10.659Z,50.885609
2022-11-15T09:29:10.671Z,50.885509
2022-11-15T09:30:10.779Z,50.885593
2022-11-15T09:31:10.640Z,50.885586
2022-11-15T09:32:10.688Z,50.885586
2022-11-15T09:33:10.637Z,50.885521
2022-11-15T09:34:10.629Z,50.885525
2022-11-15T09:35:10.639Z,50.885574
2022-11-15T09:36:10.658Z,50.885597
2022-11-15T09:37:10.631Z,50.885544
2022-11-15T09:38:10.636Z,50.885674
2022-11-15T09:39:10.608Z,50.885624
2022-11-15T09:40:10.589Z,50.885551
2022-11-15T09:41:11.649Z,50.885609
2022-11-15T09:42:10.590Z,50.885605
2022-11-15T09:43:10.594Z,50.885574
2022-11-15T09:44:10.605Z,50.885593
2022-11-15T09:45:10.605Z,50.885506
2022-11-15T09:46:10.573Z,50.885521
2022-11-15T09:47:10.577Z,50.885571
2022-11-15T09:48:10.561Z,50.885540
2022-11-15T09:49:10.563Z,50.885544
2022-11-15T09:50:10.560Z,50.885555
2022-11-15T09:51:10.575Z,50.885571
2022-11-15T09:52:10.548Z,50.885468
2022-11-15T09:53:10.547Z,50.885544
2022-11-15T09:55:12.525Z,50.885487
2022-11-15T09:56:10.554Z,50.885464
2022-11-15T09:57:15.736Z,50.885487
2022-11-15T09:58:12.490Z,50.885513
2022-11-15T09:59:10.526Z,50.885597
2022-11-15T10:01:12.548Z,50.885468
2022-11-15T10:02:10.504Z,50.885475
2022-11-15T10:03:10.486Z,50.885445
2022-11-15T10:04:11.984Z,50.885532
2022-11-15T10:05:11.479Z,50.885639
2022-11-15T10:06:10.511Z,50.885609
2022-11-15T10:07:10.597Z,50.885658
2022-11-15T10:08:10.455Z,50.885620
2022-11-15T10:09:10.453Z,50.885651
2022-11-15T10:10:10.443Z,50.885612
2022-11-15T10:11:36.172Z,50.885532
2022-11-15T10:12:11.442Z,50.885536
2022-11-15T10:13:10.466Z,50.885548
2022-11-15T10:14:10.413Z,50.885635
2022-11-15T10:15:10.414Z,50.885677
2022-11-15T10:16:10.420Z,50.885704
2022-11-15T10:17:10.418Z,50.885643
2022-11-15T10:18:10.416Z,50.885521
2022-11-15T10:19:10.388Z,50.885490
2022-11-15T10:20:10.372Z,50.885544
2022-11-15T10:21:10.389Z,50.885490
2022-11-15T10:22:10.824Z,50.885509
2022-11-15T10:23:10.379Z,50.885582
2022-11-15T10:24:10.367Z,50.885555
2022-11-15T10:25:10.363Z,50.885548
2022-11-15T10:26:10.362Z,50.885578
2022-11-15T10:27:10.376Z,50.885475
2022-11-15T10:28:10.342Z,50.885506
2022-11-15T10:29:10.332Z,50.885521
2022-11-15T10:30:10.351Z,50.885487
2022-11-15T10:31:14.302Z,50.885437
2022-11-15T10:32:11.223Z,50.885433
2022-11-15T10:33:10.358Z,50.885464
2022-11-15T10:34:10.309Z,50.885483
2022-11-15T10:35:10.321Z,50.885517
2022-11-15T10:36:10.360Z,50.885506
2022-11-15T10:37:10.315Z,50.885502
2022-11-15T10:38:10.292Z,50.885529
2022-11-15T10:39:10.290Z,50.885490
2022-11-15T10:40:10.257Z,50.885548
2022-11-15T10:41:10.253Z,50.885387
2022-11-15T10:42:13.991Z,50.885677
2022-11-15T10:43:11.261Z,50.885590
2022-11-15T10:44:10.280Z,50.885517
2022-11-15T10:45:10.264Z,50.885502
2022-11-15T10:46:39.349Z,50.885483
2022-11-15T10:47:11.272Z,50.885479
2022-11-15T10:48:10.208Z,50.885567
2022-11-15T10:49:10.221Z,50.885536
2022-11-15T10:50:10.214Z,50.885475
2022-11-15T10:51:10.231Z,50.885502
2022-11-15T10:52:10.186Z,50.885468
2022-11-15T10:53:10.327Z,50.885586
2022-11-15T10:54:13.023Z,50.885426
2022-11-15T10:55:11.202Z,50.885441
2022-11-15T10:56:10.202Z,50.885239
2022-11-15T10:57:10.195Z,50.885426
2022-11-15T10:58:10.195Z,50.885487
2022-11-15T10:59:10.209Z,50.885487
2022-11-15T11:00:10.164Z,50.885487
2022-11-15T11:01:10.218Z,50.885517
2022-11-15T11:02:10.176Z,50.885414
2022-11-15T11:03:10.155Z,50.885368
2022-11-15T11:04:10.182Z,50.885441
2022-11-15T11:05:10.168Z,50.885529
2022-11-15T11:06:10.122Z,50.885571
2022-11-15T11:07:10.146Z,50.885605
2022-11-15T11:08:10.096Z,50.885460
2022-11-15T11:09:10.246Z,50.885456
2022-11-15T11:10:36.301Z,50.885548
2022-11-15T11:11:11.124Z,50.885525
2022-11-15T11:12:10.106Z,50.885612
2022-11-15T11:13:10.141Z,50.885529
2022-11-15T11:14:10.068Z,50.885349
2022-11-15T11:15:10.111Z,50.885323
2022-11-15T11:16:10.080Z,50.885292
2022-11-15T11:17:10.068Z,50.885235
2022-11-15T11:18:10.086Z,50.885426
2022-11-15T11:19:10.051Z,50.885571
2022-11-15T11:20:10.061Z,50.885822
2022-11-15T11:21:10.080Z,50.885792
2022-11-15T11:22:10.069Z,50.885635
2022-11-15T11:23:10.020Z,50.885597
2022-11-15T11:24:10.038Z,50.885639
2022-11-15T11:25:10.010Z,50.885475
2022-11-15T11:26:10.067Z,50.885525
2022-11-15T11:27:09.997Z,50.885826
2022-11-15T11:28:10.022Z,50.885838
2022-11-15T11:29:09.970Z,50.885792